Time;durP1;ratioP1;P1;durP2;ratioP2;P2;SDS_P1;SDS_P2;PMS_P1;PMS_P2;Temp;Humidity;BMP_temperature;BMP_pressure;BME280_temperature;BME280_humidity;BME280_pressure;Samples;Min_cycle;Max_cycle;Signal;HPM_P1;HPM_P2
2022/07/01 00:00:45;;;;;;;;;;;12.00;99.90;;;;;;5056243;28;19939;-63
2022/07/01 00:03:12;;;;;;;;;;;11.90;99.90;;;;;;5056510;28;19920;-64
2022/07/01 00:05:39;;;;;;;;;;;12.00;99.90;;;;;;5087777;28;19921;-63
2022/07/01 00:08:05;;;;;;;;;;;11.90;99.90;;;;;;5055152;28;19916;-64
2022/07/01 00:10:32;;;;;;;;;;;11.90;99.90;;;;;;5055560;28;19921;-63
2022/07/01 00:12:59;;;;;;;;;;;11.90;99.90;;;;;;5087889;28;19960;-63
2022/07/01 00:15:26;;;;;;;;;;;11.90;99.90;;;;;;5055769;28;19923;-63
2022/07/01 00:17:53;;;;;;;;;;;11.90;99.90;;;;;;5056501;28;19927;-63
2022/07/01 00:20:20;;;;;;;;;;;11.80;99.90;;;;;;5056441;28;19924;-63
2022/07/01 00:22:47;;;;;;;;;;;11.90;99.90;;;;;;5055631;28;19917;-63
2022/07/01 00:25:14;;;;;;;;;;;11.90;99.90;;;;;;5056275;28;19924;-63
2022/07/01 00:27:41;;;;;;;;;;;11.90;99.90;;;;;;5055107;28;19917;-63
2022/07/01 00:30:08;;;;;;;;;;;11.90;99.90;;;;;;5055188;28;19916;-62
2022/07/01 00:32:35;;;;;;;;;;;11.80;99.90;;;;;;5055135;28;19916;-62
2022/07/01 00:35:02;;;;;;;;;;;11.80;99.90;;;;;;5086978;28;20438;-64
2022/07/01 00:37:29;;;;;;;;;;;11.80;99.90;;;;;;5055307;28;19917;-63
2022/07/01 00:39:55;;;;;;;;;;;11.80;99.90;;;;;;5054079;28;19924;-63
2022/07/01 00:42:22;;;;;;;;;;;11.80;99.90;;;;;;5055158;28;20035;-63
2022/07/01 00:44:49;;;;;;;;;;;11.80;99.90;;;;;;5087951;28;19939;-62
2022/07/01 00:47:16;;;;;;;;;;;11.80;99.90;;;;;;5055605;28;19923;-62
2022/07/01 00:49:43;;;;;;;;;;;11.80;99.90;;;;;;5053820;28;19960;-62
2022/07/01 00:52:10;;;;;;;;;;;11.80;99.90;;;;;;5054953;28;19916;-62
2022/07/01 00:54:37;;;;;;;;;;;11.80;99.90;;;;;;5055465;28;19916;-62
2022/07/01 00:57:07;;;;;;;;;;;11.80;99.90;;;;;;5053352;28;19923;-62
2022/07/01 00:59:35;;;;;;;;;;;11.90;99.90;;;;;;5054856;28;19917;-63
2022/07/01 01:02:02;;;;;;;;;;;11.90;99.90;;;;;;5055625;28;19925;-63
2022/07/01 01:04:29;;;;;;;;;;;12.00;99.90;;;;;;5054736;28;19916;-63
2022/07/01 01:06:56;;;;;;;;;;;12.10;99.90;;;;;;5054433;28;19916;-63
2022/07/01 01:09:23;;;;;;;;;;;12.10;99.90;;;;;;5054587;28;19924;-63
2022/07/01 01:11:50;;;;;;;;;;;12.10;99.90;;;;;;5086733;28;19916;-63
2022/07/01 01:14:17;;;;;;;;;;;12.10;99.90;;;;;;5054574;28;19917;-63
2022/07/01 01:16:43;;;;;;;;;;;12.00;99.90;;;;;;5055378;28;19936;-63
2022/07/01 01:19:10;;;;;;;;;;;12.00;99.90;;;;;;5055315;28;19928;-63
2022/07/01 01:21:37;;;;;;;;;;;12.00;99.90;;;;;;5053863;28;19924;-63
2022/07/01 01:24:04;;;;;;;;;;;12.00;99.90;;;;;;5054083;28;19968;-63
2022/07/01 01:26:31;;;;;;;;;;;11.90;99.90;;;;;;5054878;28;19917;-63
2022/07/01 01:28:57;;;;;;;;;;;11.90;99.90;;;;;;5055109;28;19924;-63
2022/07/01 01:31:30;;;;;;;;;;;11.90;99.90;;;;;;5053964;28;19930;-63
2022/07/01 01:33:58;;;;;;;;;;;11.90;99.90;;;;;;5055111;28;20240;-63
2022/07/01 01:36:24;;;;;;;;;;;11.90;99.90;;;;;;5053994;28;19916;-63
2022/07/01 01:38:52;;;;;;;;;;;11.90;99.90;;;;;;5053923;28;19916;-62
2022/07/01 01:41:19;;;;;;;;;;;11.90;99.90;;;;;;5055319;28;19916;-62
2022/07/01 01:43:47;;;;;;;;;;;11.90;99.90;;;;;;5054117;28;19917;-62
2022/07/01 01:46:13;;;;;;;;;;;11.90;99.90;;;;;;5054080;28;19923;-62
2022/07/01 01:48:40;;;;;;;;;;;11.90;99.90;;;;;;5085705;28;19947;-62
2022/07/01 01:51:07;;;;;;;;;;;11.90;99.90;;;;;;5053815;28;19920;-62
2022/07/01 01:53:34;;;;;;;;;;;11.90;99.90;;;;;;5054073;28;20427;-62
2022/07/01 01:56:01;;;;;;;;;;;11.90;99.90;;;;;;5053684;28;20379;-62
2022/07/01 01:58:27;;;;;;;;;;;12.00;99.90;;;;;;5053255;28;20372;-63
2022/07/01 02:00:54;;;;;;;;;;;12.00;99.90;;;;;;5086098;28;20272;-62
2022/07/01 02:03:21;;;;;;;;;;;12.10;99.90;;;;;;5053928;28;19939;-62
2022/07/01 02:05:48;;;;;;;;;;;12.00;99.90;;;;;;5054372;28;20014;-62
2022/07/01 02:08:15;;;;;;;;;;;12.00;99.90;;;;;;5053610;28;19924;-62
2022/07/01 02:10:44;;;;;;;;;;;12.00;99.90;;;;;;5052340;28;19932;-62
2022/07/01 02:13:11;;;;;;;;;;;12.10;99.90;;;;;;5053776;28;19931;-62
2022/07/01 02:15:39;;;;;;;;;;;12.10;99.90;;;;;;5053408;28;19917;-62
2022/07/01 02:18:06;;;;;;;;;;;12.00;99.90;;;;;;5053713;28;19916;-62
2022/07/01 02:20:33;;;;;;;;;;;12.00;99.90;;;;;;5052138;28;19927;-62
2022/07/01 02:23:00;;;;;;;;;;;12.00;99.90;;;;;;5057977;28;19920;-63
2022/07/01 02:25:27;;;;;;;;;;;12.00;99.90;;;;;;5057769;28;19917;-63
2022/07/01 02:27:54;;;;;;;;;;;12.00;99.90;;;;;;5057632;28;19916;-63
2022/07/01 02:30:21;;;;;;;;;;;12.00;99.90;;;;;;5057858;28;19924;-63
2022/07/01 02:32:48;;;;;;;;;;;12.00;99.90;;;;;;5058134;28;19917;-63
2022/07/01 02:35:14;;;;;;;;;;;11.90;99.90;;;;;;5057605;28;19916;-63
2022/07/01 02:37:41;;;;;;;;;;;11.90;99.90;;;;;;5057272;28;19923;-62
2022/07/01 02:40:09;;;;;;;;;;;11.90;99.90;;;;;;5057176;28;19948;-62
2022/07/01 02:42:36;;;;;;;;;;;11.90;99.90;;;;;;5057454;28;19923;-63
2022/07/01 02:45:04;;;;;;;;;;;11.80;99.90;;;;;;5057430;28;19921;-63
2022/07/01 02:47:34;;;;;;;;;;;11.80;99.90;;;;;;5058281;28;19917;-63
2022/07/01 02:50:02;;;;;;;;;;;11.80;99.90;;;;;;5057050;28;19917;-63
2022/07/01 02:52:29;;;;;;;;;;;11.80;99.90;;;;;;5057218;28;19917;-63
2022/07/01 02:54:56;;;;;;;;;;;11.70;99.90;;;;;;5057277;28;19916;-63
2022/07/01 02:57:22;;;;;;;;;;;11.80;99.90;;;;;;5056860;28;19921;-63
2022/07/01 02:59:50;;;;;;;;;;;11.80;99.90;;;;;;5089800;28;20016;-63
2022/07/01 03:02:17;;;;;;;;;;;11.80;99.90;;;;;;5057620;28;19917;-63
2022/07/01 03:04:45;;;;;;;;;;;11.80;99.90;;;;;;5057837;28;20227;-63
2022/07/01 03:07:12;;;;;;;;;;;11.80;99.90;;;;;;5056788;28;20357;-63
2022/07/01 03:09:39;;;;;;;;;;;11.90;99.90;;;;;;5057046;28;19916;-63
2022/07/01 03:12:25;;;;;;;;;;;11.80;99.90;;;;;;5056936;28;19940;-63
2022/07/01 03:14:52;;;;;;;;;;;11.80;99.90;;;;;;5057760;28;19923;-63
2022/07/01 03:17:18;;;;;;;;;;;11.90;99.90;;;;;;5057353;28;19917;-63
2022/07/01 03:19:46;;;;;;;;;;;11.90;99.90;;;;;;5056574;28;19917;-63
2022/07/01 03:22:12;;;;;;;;;;;11.90;99.90;;;;;;5056820;28;19923;-63
2022/07/01 03:24:39;;;;;;;;;;;11.90;99.90;;;;;;5056600;28;19917;-63
2022/07/01 03:27:07;;;;;;;;;;;11.90;99.90;;;;;;5056648;28;19916;-63
2022/07/01 03:29:33;;;;;;;;;;;11.80;99.90;;;;;;5055405;28;20283;-63
2022/07/01 03:32:00;;;;;;;;;;;11.80;99.90;;;;;;5056826;28;19916;-62
2022/07/01 03:34:27;;;;;;;;;;;11.80;99.90;;;;;;5055636;28;20363;-62
2022/07/01 03:36:54;;;;;;;;;;;11.80;99.90;;;;;;5056963;28;19959;-63
2022/07/01 03:39:21;;;;;;;;;;;11.80;99.90;;;;;;5056118;28;20364;-63
2022/07/01 03:41:48;;;;;;;;;;;11.80;99.90;;;;;;5056397;28;20344;-62
2022/07/01 03:44:15;;;;;;;;;;;11.80;99.90;;;;;;5056053;28;20248;-62
2022/07/01 03:46:41;;;;;;;;;;;11.80;99.90;;;;;;5057080;28;19916;-62
2022/07/01 03:49:08;;;;;;;;;;;11.80;99.90;;;;;;5055885;28;19923;-62
2022/07/01 03:51:35;;;;;;;;;;;11.80;99.90;;;;;;5055913;28;19917;-63
2022/07/01 03:56:47;;;;;;;;;;;11.70;99.90;;;;;;5057020;28;19920;-63
2022/07/01 03:59:14;;;;;;;;;;;11.70;99.90;;;;;;5055964;28;19920;-63
2022/07/01 04:01:41;;;;;;;;;;;11.70;99.90;;;;;;5056814;28;19939;-63
2022/07/01 04:04:07;;;;;;;;;;;11.70;99.90;;;;;;5055958;28;20348;-63
2022/07/01 04:06:34;;;;;;;;;;;11.70;99.90;;;;;;5055654;28;20016;-63
2022/07/01 04:09:01;;;;;;;;;;;11.70;99.90;;;;;;5055741;28;19932;-63
2022/07/01 04:11:31;;;;;;;;;;;11.80;99.90;;;;;;5055881;28;19917;-63
2022/07/01 04:13:58;;;;;;;;;;;11.90;99.90;;;;;;5055848;28;19917;-63
2022/07/01 04:16:25;;;;;;;;;;;11.90;99.90;;;;;;5055352;28;20375;-63
2022/07/01 04:18:52;;;;;;;;;;;12.00;99.90;;;;;;5087663;28;19923;-63
2022/07/01 04:24:05;;;;;;;;;;;12.10;99.90;;;;;;5055619;28;19924;-63
2022/07/01 04:26:32;;;;;;;;;;;12.20;99.90;;;;;;5056090;28;20233;-63
2022/07/01 04:29:04;;;;;;;;;;;12.20;99.90;;;;;;5056330;28;19921;-62
2022/07/01 04:31:31;;;;;;;;;;;12.20;99.90;;;;;;5055727;28;19916;-62
2022/07/01 04:33:58;;;;;;;;;;;12.30;99.90;;;;;;5055426;28;19978;-63
2022/07/01 04:36:25;;;;;;;;;;;12.30;99.90;;;;;;5055353;28;19924;-65
2022/07/01 04:38:52;;;;;;;;;;;12.30;99.90;;;;;;5087293;28;19924;-62
2022/07/01 04:44:04;;;;;;;;;;;12.50;99.90;;;;;;5055506;28;19927;-62
2022/07/01 04:46:31;;;;;;;;;;;12.50;99.90;;;;;;5055127;28;19917;-62
2022/07/01 04:48:58;;;;;;;;;;;12.50;99.90;;;;;;5053680;28;19939;-62
2022/07/01 04:51:25;;;;;;;;;;;12.60;99.90;;;;;;5055211;28;19917;-63
2022/07/01 04:53:51;;;;;;;;;;;12.70;99.90;;;;;;5086854;28;19921;-63
2022/07/01 04:56:20;;;;;;;;;;;12.80;99.90;;;;;;5054543;28;20352;-63
2022/07/01 04:58:47;;;;;;;;;;;12.90;99.90;;;;;;5054621;28;19917;-63
2022/07/01 05:01:14;;;;;;;;;;;13.00;99.90;;;;;;5054594;28;19920;-63
2022/07/01 05:03:41;;;;;;;;;;;13.00;99.90;;;;;;5054515;28;19916;-62
2022/07/01 05:06:08;;;;;;;;;;;13.10;99.90;;;;;;5055040;28;19923;-63
2022/07/01 05:08:35;;;;;;;;;;;13.20;99.90;;;;;;5086354;28;20003;-63
2022/07/01 05:11:01;;;;;;;;;;;13.20;99.90;;;;;;5053503;28;19924;-63
2022/07/01 05:13:28;;;;;;;;;;;13.20;99.90;;;;;;5054676;28;20368;-63
2022/07/01 05:15:55;;;;;;;;;;;13.30;99.90;;;;;;5054533;28;19923;-62
2022/07/01 05:23:52;;;;;;;;;;;13.70;99.90;;;;;;5054242;28;19924;-63
2022/07/01 05:26:19;;;;;;;;;;;14.00;99.90;;;;;;5054205;28;19920;-63
2022/07/01 05:28:45;;;;;;;;;;;14.10;99.90;;;;;;5053736;28;19921;-62
2022/07/01 05:31:14;;;;;;;;;;;14.10;99.90;;;;;;5054903;28;20291;-63
2022/07/01 05:33:41;;;;;;;;;;;14.10;99.90;;;;;;5054050;28;19967;-63
2022/07/01 05:36:07;;;;;;;;;;;14.10;99.90;;;;;;5054792;28;20359;-63
2022/07/01 05:38:34;;;;;;;;;;;14.10;99.90;;;;;;5053943;28;19920;-63
2022/07/01 05:41:01;;;;;;;;;;;14.10;99.90;;;;;;5054220;28;20367;-63
2022/07/01 05:43:29;;;;;;;;;;;14.20;99.90;;;;;;5054477;28;19924;-63
2022/07/01 05:45:56;;;;;;;;;;;14.30;99.90;;;;;;5053664;28;19916;-63
2022/07/01 05:48:23;;;;;;;;;;;14.30;99.90;;;;;;5053650;28;19923;-63
2022/07/01 05:50:50;;;;;;;;;;;14.40;99.90;;;;;;5053726;28;20356;-63
2022/07/01 05:53:16;;;;;;;;;;;14.60;99.90;;;;;;5054553;28;19921;-63
2022/07/01 05:55:44;;;;;;;;;;;14.60;99.90;;;;;;5086002;28;20406;-64
2022/07/01 05:58:11;;;;;;;;;;;14.70;99.90;;;;;;5053535;28;19921;-62
2022/07/01 06:00:41;;;;;;;;;;;14.80;99.90;;;;;;5053959;28;19916;-63
2022/07/01 06:03:11;;;;;;;;;;;14.80;99.90;;;;;;5053594;28;19924;-63
2022/07/01 06:05:38;;;;;;;;;;;14.80;99.90;;;;;;5085577;28;19925;-62
2022/07/01 06:08:05;;;;;;;;;;;14.80;99.90;;;;;;5053465;28;19924;-63
2022/07/01 06:10:33;;;;;;;;;;;14.70;99.90;;;;;;5054725;28;19916;-64
2022/07/01 06:12:59;;;;;;;;;;;14.70;99.90;;;;;;5053488;28;19923;-63
2022/07/01 06:15:26;;;;;;;;;;;14.80;99.90;;;;;;5053775;28;20012;-63
2022/07/01 06:17:53;;;;;;;;;;;14.90;99.90;;;;;;5053508;28;19960;-63
2022/07/01 06:20:20;;;;;;;;;;;15.00;99.90;;;;;;5053839;28;20011;-64
2022/07/01 06:22:47;;;;;;;;;;;15.00;99.90;;;;;;5054584;28;19923;-65
2022/07/01 06:25:14;;;;;;;;;;;15.10;99.90;;;;;;5053428;28;19943;-71
2022/07/01 06:27:41;;;;;;;;;;;15.30;99.90;;;;;;5053801;28;19927;-71
2022/07/01 06:30:08;;;;;;;;;;;15.50;99.90;;;;;;5085949;28;19917;-71
2022/07/01 06:32:35;;;;;;;;;;;15.60;99.90;;;;;;5085676;28;19917;-71
2022/07/01 06:35:03;;;;;;;;;;;15.70;99.90;;;;;;5053726;28;20311;-71
2022/07/01 06:37:33;;;;;;;;;;;15.80;99.90;;;;;;5069035;28;19917;-71
2022/07/01 06:40:00;;;;;;;;;;;15.90;99.90;;;;;;5054274;28;19974;-72
2022/07/01 06:42:27;;;;;;;;;;;15.90;99.90;;;;;;5054133;28;19938;-71
2022/07/01 06:44:54;;;;;;;;;;;16.00;99.90;;;;;;5054279;28;19926;-72
2022/07/01 06:47:21;;;;;;;;;;;16.00;99.90;;;;;;5068739;28;19917;-71
2022/07/01 06:49:48;;;;;;;;;;;16.00;99.90;;;;;;5053436;28;20368;-71
2022/07/01 06:52:20;;;;;;;;;;;16.10;99.90;;;;;;5053930;28;19952;-59
2022/07/01 06:54:47;;;;;;;;;;;16.20;99.90;;;;;;5052870;28;19917;-62
2022/07/01 06:57:13;;;;;;;;;;;16.30;99.90;;;;;;5085571;28;19925;-63
2022/07/01 06:59:40;;;;;;;;;;;16.40;99.90;;;;;;5051829;28;19923;-66
2022/07/01 07:02:07;;;;;;;;;;;16.50;99.90;;;;;;5053196;28;19917;-66
2022/07/01 07:04:34;;;;;;;;;;;16.60;99.90;;;;;;5053994;28;20306;-64
2022/07/01 07:07:21;;;;;;;;;;;16.60;99.90;;;;;;5054017;28;20310;-65
2022/07/01 07:09:48;;;;;;;;;;;16.70;99.90;;;;;;5057026;28;19917;-64
2022/07/01 07:12:15;;;;;;;;;;;16.70;99.90;;;;;;5056872;28;19927;-69
2022/07/01 07:14:42;;;;;;;;;;;16.80;99.90;;;;;;5056908;28;19916;-71
2022/07/01 07:17:08;;;;;;;;;;;16.80;99.90;;;;;;5056823;28;19924;-70
2022/07/01 07:19:35;;;;;;;;;;;17.00;99.90;;;;;;5056701;28;19963;-68
2022/07/01 07:22:02;;;;;;;;;;;17.20;99.90;;;;;;5056459;28;20366;-69
2022/07/01 07:24:29;;;;;;;;;;;17.30;99.90;;;;;;5056649;28;19916;-70
2022/07/01 07:26:56;;;;;;;;;;;17.30;99.90;;;;;;5057252;28;19917;-72
2022/07/01 07:29:22;;;;;;;;;;;17.40;99.90;;;;;;5056133;28;19923;-70
2022/07/01 07:31:49;;;;;;;;;;;17.50;99.90;;;;;;5056378;28;19989;-73
2022/07/01 07:34:16;;;;;;;;;;;17.70;99.90;;;;;;5056991;28;20225;-69
2022/07/01 07:36:43;;;;;;;;;;;17.90;99.90;;;;;;5056669;28;19939;-71
2022/07/01 07:39:10;;;;;;;;;;;18.10;99.90;;;;;;5056568;28;19917;-63
2022/07/01 07:41:36;;;;;;;;;;;18.20;99.90;;;;;;5056259;28;19982;-64
2022/07/01 07:44:03;;;;;;;;;;;18.20;99.90;;;;;;5055691;28;19916;-68
2022/07/01 07:46:30;;;;;;;;;;;18.40;99.90;;;;;;5056043;28;19924;-69
2022/07/01 07:48:57;;;;;;;;;;;18.40;99.90;;;;;;5056650;28;20240;-67
2022/07/01 07:51:24;;;;;;;;;;;18.40;99.90;;;;;;5056091;28;19920;-68
2022/07/01 07:53:52;;;;;;;;;;;18.50;99.90;;;;;;5056061;28;19939;-67
2022/07/01 07:56:19;;;;;;;;;;;18.60;99.90;;;;;;5056008;28;19916;-70
2022/07/01 07:58:46;;;;;;;;;;;18.70;99.90;;;;;;5088123;28;19924;-70
2022/07/01 08:01:12;;;;;;;;;;;18.80;99.90;;;;;;5088470;28;19917;-70
2022/07/01 08:03:39;;;;;;;;;;;18.70;99.90;;;;;;5055935;28;19924;-69
2022/07/01 08:06:06;;;;;;;;;;;18.50;99.90;;;;;;5055449;28;19916;-69
2022/07/01 08:08:33;;;;;;;;;;;18.40;99.90;;;;;;5055383;28;20011;-70
2022/07/01 08:11:00;;;;;;;;;;;18.40;99.90;;;;;;5056666;28;20248;-69
2022/07/01 08:13:27;;;;;;;;;;;18.40;99.90;;;;;;5056468;28;20055;-70
2022/07/01 08:15:54;;;;;;;;;;;18.40;99.90;;;;;;5055916;28;19916;-70
2022/07/01 08:18:21;;;;;;;;;;;18.40;99.90;;;;;;5055146;28;20374;-70
2022/07/01 08:20:52;;;;;;;;;;;18.40;99.90;;;;;;5053988;28;19917;-70
2022/07/01 08:23:19;;;;;;;;;;;18.50;99.90;;;;;;5056079;28;20008;-70
2022/07/01 08:25:49;;;;;;;;;;;18.70;99.90;;;;;;5055321;28;19924;-69
2022/07/01 08:28:16;;;;;;;;;;;18.70;99.90;;;;;;5087515;28;19916;-69
2022/07/01 08:30:43;;;;;;;;;;;18.70;99.90;;;;;;5054976;28;20418;-70
2022/07/01 08:33:10;;;;;;;;;;;18.70;99.90;;;;;;5054919;28;20007;-69
2022/07/01 08:35:37;;;;;;;;;;;18.70;99.90;;;;;;5087030;28;20387;-70
2022/07/01 08:38:04;;;;;;;;;;;18.90;99.90;;;;;;5055204;28;19917;-70
2022/07/01 08:40:31;;;;;;;;;;;19.00;99.90;;;;;;5055269;28;19916;-68
2022/07/01 08:42:58;;;;;;;;;;;19.20;99.90;;;;;;5087096;28;20352;-69
2022/07/01 08:45:25;;;;;;;;;;;19.30;99.90;;;;;;5053852;28;19921;-69
2022/07/01 08:47:52;;;;;;;;;;;19.40;99.90;;;;;;5087045;28;20324;-68
2022/07/01 08:50:19;;;;;;;;;;;19.60;99.90;;;;;;5054939;28;19923;-69
2022/07/01 08:52:49;;;;;;;;;;;19.80;99.90;;;;;;5055175;28;20314;-69
2022/07/01 08:55:16;;;;;;;;;;;19.90;99.90;;;;;;5055083;28;19917;-69
2022/07/01 08:57:43;;;;;;;;;;;20.10;99.90;;;;;;5087525;28;20263;-69
2022/07/01 09:00:10;;;;;;;;;;;20.20;99.90;;;;;;5054489;28;19916;-69
2022/07/01 09:02:49;;;;;;;;;;;20.40;99.90;;;;;;5069807;28;19923;-69
2022/07/01 09:05:16;;;;;;;;;;;20.50;99.90;;;;;;5054362;28;19923;-69
2022/07/01 09:07:43;;;;;;;;;;;20.40;99.90;;;;;;5053125;28;19966;-69
2022/07/01 09:10:19;;;;;;;;;;;20.20;99.90;;;;;;5085058;28;19925;-69
2022/07/01 09:12:46;;;;;;;;;;;20.00;99.90;;;;;;5055229;28;20204;-69
2022/07/01 09:15:26;;;;;;;;;;;19.90;99.90;;;;;;5055309;28;19917;-69
2022/07/01 09:17:53;;;;;;;;;;;19.90;99.90;;;;;;5086284;28;20419;-69
2022/07/01 09:20:30;;;;;;;;;;;19.80;99.90;;;;;;5054210;28;19959;-70
2022/07/01 09:23:01;;;;;;;;;;;19.90;99.90;;;;;;5054370;28;19917;-70
2022/07/01 09:25:31;;;;;;;;;;;20.10;99.90;;;;;;5069749;28;20237;-68
2022/07/01 09:28:05;;;;;;;;;;;20.30;99.90;;;;;;5054409;28;19917;-72
2022/07/01 09:30:32;;;;;;;;;;;20.60;99.90;;;;;;5085364;28;19923;-67
2022/07/01 09:33:09;;;;;;;;;;;20.80;99.90;;;;;;5053734;28;19917;-69
2022/07/01 09:35:36;;;;;;;;;;;20.90;99.90;;;;;;5053454;28;19923;-69
2022/07/01 09:38:05;;;;;;;;;;;20.90;99.90;;;;;;5053905;28;19955;-64
2022/07/01 09:40:46;;;;;;;;;;;20.90;99.90;;;;;;5053680;28;19967;-65
2022/07/01 09:43:17;;;;;;;;;;;20.80;98.30;;;;;;5085586;28;19927;-65
2022/07/01 09:45:57;;;;;;;;;;;20.70;99.00;;;;;;5086120;28;19916;-65
2022/07/01 09:48:25;;;;;;;;;;;20.60;99.40;;;;;;5053677;28;20341;-64
2022/07/01 09:50:52;;;;;;;;;;;20.40;99.90;;;;;;5053609;28;20318;-65
2022/07/01 09:53:19;;;;;;;;;;;20.30;99.90;;;;;;5053639;28;19917;-64
2022/07/01 09:55:47;;;;;;;;;;;20.60;99.90;;;;;;5054667;28;19916;-65
2022/07/01 09:58:14;;;;;;;;;;;20.70;99.90;;;;;;5054419;28;19923;-65
2022/07/01 10:00:41;;;;;;;;;;;20.70;99.90;;;;;;5054407;28;19916;-63
2022/07/01 10:03:08;;;;;;;;;;;20.60;99.90;;;;;;5054540;28;20046;-63
2022/07/01 10:05:39;;;;;;;;;;;20.60;99.90;;;;;;5053787;28;19917;-64
2022/07/01 10:08:18;;;;;;;;;;;20.50;99.90;;;;;;5085708;28;20303;-64
2022/07/01 10:10:55;;;;;;;;;;;20.30;99.90;;;;;;5052131;28;20332;-64
2022/07/01 10:13:23;;;;;;;;;;;20.10;99.90;;;;;;5086746;28;19916;-64
2022/07/01 10:15:50;;;;;;;;;;;20.00;99.90;;;;;;5085364;28;19936;-65
2022/07/01 10:18:21;;;;;;;;;;;20.10;99.90;;;;;;5085705;28;19916;-69
2022/07/01 10:20:48;;;;;;;;;;;20.40;99.90;;;;;;5054175;28;19955;-70
2022/07/01 10:23:15;;;;;;;;;;;20.60;99.90;;;;;;5053975;28;19920;-71
2022/07/01 10:25:42;;;;;;;;;;;20.80;99.90;;;;;;5054323;28;19917;-69
2022/07/01 10:28:13;;;;;;;;;;;20.90;99.90;;;;;;5052310;28;20410;-69
2022/07/01 10:30:49;;;;;;;;;;;20.90;97.90;;;;;;5085453;28;19943;-69
2022/07/01 10:33:26;;;;;;;;;;;21.00;95.90;;;;;;5051968;28;20352;-69
2022/07/01 10:35:53;;;;;;;;;;;21.10;97.00;;;;;;5053477;28;19924;-71
2022/07/01 10:38:20;;;;;;;;;;;21.30;97.70;;;;;;5053817;28;20352;-69
2022/07/01 10:40:49;;;;;;;;;;;21.50;99.30;;;;;;5085540;28;19936;-66
2022/07/01 10:43:31;;;;;;;;;;;21.80;98.00;;;;;;5056906;28;19920;-68
2022/07/01 10:45:58;;;;;;;;;;;22.10;97.70;;;;;;5089143;28;19978;-64
2022/07/01 10:48:26;;;;;;;;;;;22.10;92.80;;;;;;5056587;28;20306;-65
2022/07/01 10:50:52;;;;;;;;;;;22.20;93.20;;;;;;5056954;28;20360;-65
2022/07/01 10:53:19;;;;;;;;;;;22.20;91.70;;;;;;5057180;28;19925;-67
2022/07/01 10:55:50;;;;;;;;;;;22.10;91.30;;;;;;5056815;28;19924;-67
2022/07/01 10:58:36;;;;;;;;;;;21.80;91.60;;;;;;5057991;28;19920;-69
2022/07/01 11:01:03;;;;;;;;;;;21.60;93.00;;;;;;5057802;28;19916;-69
2022/07/01 11:03:33;;;;;;;;;;;21.50;93.10;;;;;;5057520;28;20004;-67
2022/07/01 11:06:00;;;;;;;;;;;21.50;93.40;;;;;;5057665;28;19916;-67
2022/07/01 11:08:27;;;;;;;;;;;21.40;93.00;;;;;;5056243;28;19942;-67
2022/07/01 11:10:58;;;;;;;;;;;21.20;92.60;;;;;;5056493;28;19916;-67
2022/07/01 11:13:25;;;;;;;;;;;21.10;92.90;;;;;;5056741;28;20360;-73
2022/07/01 11:15:52;;;;;;;;;;;21.10;93.40;;;;;;5056699;28;19917;-70
2022/07/01 11:18:19;;;;;;;;;;;21.10;93.60;;;;;;5089330;28;19916;-73
2022/07/01 11:20:46;;;;;;;;;;;21.10;94.70;;;;;;5056432;28;19920;-69
2022/07/01 11:23:13;;;;;;;;;;;21.20;93.00;;;;;;5056360;28;19923;-68
2022/07/01 11:25:41;;;;;;;;;;;21.50;94.00;;;;;;5056351;28;20003;-68
2022/07/01 11:28:07;;;;;;;;;;;21.70;92.10;;;;;;5056605;28;20344;-69
2022/07/01 11:30:34;;;;;;;;;;;21.90;91.80;;;;;;5088758;28;19924;-68
2022/07/01 11:33:01;;;;;;;;;;;21.90;89.30;;;;;;5057171;28;19916;-68
2022/07/01 11:41:01;;;;;;;;;;;22.50;84.20;;;;;;5057217;28;19917;-68
2022/07/01 11:43:29;;;;;;;;;;;22.50;80.40;;;;;;5056000;28;19931;-70
2022/07/01 11:45:57;;;;;;;;;;;22.50;83.30;;;;;;5056708;28;19916;-69
2022/07/01 11:48:40;;;;;;;;;;;22.50;85.00;;;;;;5055622;28;19939;-69
2022/07/01 11:51:14;;;;;;;;;;;22.30;82.90;;;;;;5055935;28;20332;-70
2022/07/01 11:53:42;;;;;;;;;;;22.30;79.10;;;;;;5070846;28;19970;-70
2022/07/01 11:56:08;;;;;;;;;;;22.20;79.70;;;;;;5056707;28;19917;-71
2022/07/01 11:58:45;;;;;;;;;;;22.20;82.40;;;;;;5056311;28;20368;-67
2022/07/01 12:01:20;;;;;;;;;;;22.20;82.40;;;;;;5055685;28;19963;-69
2022/07/01 12:03:47;;;;;;;;;;;22.10;79.20;;;;;;5056471;28;19917;-71
2022/07/01 12:06:14;;;;;;;;;;;22.00;80.40;;;;;;5056617;28;19916;-69
2022/07/01 12:08:43;;;;;;;;;;;21.90;81.10;;;;;;5056368;28;19917;-71
2022/07/01 12:11:10;;;;;;;;;;;21.80;82.80;;;;;;5087011;28;19916;-70
2022/07/01 12:13:38;;;;;;;;;;;21.70;83.80;;;;;;5088127;28;20423;-70
2022/07/01 12:16:05;;;;;;;;;;;21.80;86.10;;;;;;5055307;28;19917;-69
2022/07/01 12:18:32;;;;;;;;;;;21.80;83.30;;;;;;5055046;28;19970;-68
2022/07/01 12:20:59;;;;;;;;;;;21.60;82.50;;;;;;5055192;28;20360;-69
2022/07/01 12:23:26;;;;;;;;;;;21.50;80.70;;;;;;5056269;28;19927;-69
2022/07/01 12:25:54;;;;;;;;;;;21.60;82.50;;;;;;5054033;28;19917;-69
2022/07/01 12:28:28;;;;;;;;;;;21.70;84.30;;;;;;5055488;28;19916;-71
2022/07/01 12:31:02;;;;;;;;;;;21.70;84.00;;;;;;5055417;28;20390;-70
2022/07/01 12:33:29;;;;;;;;;;;21.70;86.10;;;;;;5055144;28;20019;-70
2022/07/01 12:35:56;;;;;;;;;;;21.50;84.90;;;;;;5054154;28;20327;-71
2022/07/01 12:38:23;;;;;;;;;;;21.40;84.70;;;;;;5055334;28;19917;-76
2022/07/01 12:40:50;;;;;;;;;;;21.30;85.70;;;;;;5055006;28;19917;-70
2022/07/01 12:43:23;;;;;;;;;;;21.20;87.10;;;;;;5088227;28;19920;-68
2022/07/01 12:45:50;;;;;;;;;;;21.20;87.70;;;;;;5055225;28;19922;-69
2022/07/01 12:48:17;;;;;;;;;;;21.20;88.40;;;;;;5055024;28;19918;-69
2022/07/01 12:50:46;;;;;;;;;;;21.30;86.60;;;;;;5056087;28;19916;-72
2022/07/01 12:53:19;;;;;;;;;;;21.40;88.30;;;;;;5054681;28;19970;-71
2022/07/01 12:55:56;;;;;;;;;;;21.50;85.10;;;;;;5055838;28;19928;-72
2022/07/01 12:58:26;;;;;;;;;;;21.70;86.10;;;;;;5054758;28;19954;-70
2022/07/01 13:00:54;;;;;;;;;;;21.80;84.10;;;;;;5054905;28;19924;-70
2022/07/01 13:03:22;;;;;;;;;;;22.10;86.00;;;;;;5055430;28;19916;-69
2022/07/01 13:05:49;;;;;;;;;;;22.40;82.70;;;;;;5054266;28;19920;-70
2022/07/01 13:08:16;;;;;;;;;;;22.70;83.70;;;;;;5086892;28;19970;-69
2022/07/01 13:10:43;;;;;;;;;;;23.00;83.10;;;;;;5054547;28;19924;-71
2022/07/01 13:13:10;;;;;;;;;;;22.90;81.40;;;;;;5054625;28;19921;-69
2022/07/01 13:15:37;;;;;;;;;;;22.80;82.50;;;;;;5055734;28;19924;-67
2022/07/01 13:18:04;;;;;;;;;;;22.60;80.70;;;;;;5054259;28;19916;-67
2022/07/01 13:20:31;;;;;;;;;;;22.50;79.60;;;;;;5054280;28;20058;-66
2022/07/01 13:22:57;;;;;;;;;;;22.50;82.10;;;;;;5054620;28;19921;-69
2022/07/01 13:25:24;;;;;;;;;;;22.50;80.80;;;;;;5054112;28;19917;-66
2022/07/01 13:27:51;;;;;;;;;;;22.50;82.20;;;;;;5054860;28;19917;-70
2022/07/01 13:30:18;;;;;;;;;;;22.60;83.40;;;;;;5086912;28;20350;-70
2022/07/01 13:32:45;;;;;;;;;;;22.70;80.40;;;;;;5052715;28;20007;-70
2022/07/01 13:35:12;;;;;;;;;;;22.80;81.00;;;;;;5053854;28;19917;-69
2022/07/01 13:37:39;;;;;;;;;;;22.90;79.80;;;;;;5054219;28;20267;-70
2022/07/01 13:40:06;;;;;;;;;;;22.90;80.20;;;;;;5054116;28;19921;-69
2022/07/01 13:42:33;;;;;;;;;;;23.10;80.70;;;;;;5087001;28;19916;-69
2022/07/01 13:44:59;;;;;;;;;;;23.20;77.80;;;;;;5054059;28;19916;-70
2022/07/01 13:47:27;;;;;;;;;;;23.20;76.70;;;;;;5053873;28;19921;-70
2022/07/01 13:49:53;;;;;;;;;;;23.00;78.20;;;;;;5085701;28;19924;-69
2022/07/01 13:52:20;;;;;;;;;;;22.80;78.40;;;;;;5054697;28;19917;-70
2022/07/01 13:54:47;;;;;;;;;;;22.40;78.00;;;;;;5053947;28;20299;-70
2022/07/01 13:57:14;;;;;;;;;;;22.10;78.30;;;;;;5053958;28;19917;-70
2022/07/01 13:59:41;;;;;;;;;;;21.80;79.40;;;;;;5053878;28;19939;-68
2022/07/01 14:02:08;;;;;;;;;;;21.70;80.10;;;;;;5052244;28;20275;-69
2022/07/01 14:04:35;;;;;;;;;;;21.70;80.30;;;;;;5085584;28;19967;-68
2022/07/01 14:07:02;;;;;;;;;;;21.80;80.60;;;;;;5053801;28;20019;-66
2022/07/01 14:09:29;;;;;;;;;;;21.80;81.50;;;;;;5053555;28;19917;-68
2022/07/01 14:11:56;;;;;;;;;;;21.70;80.50;;;;;;5052462;28;19916;-67
2022/07/01 14:14:23;;;;;;;;;;;21.70;81.50;;;;;;5085809;28;19917;-70
2022/07/01 14:16:50;;;;;;;;;;;21.60;80.80;;;;;;5055623;28;20258;-71
2022/07/01 14:19:17;;;;;;;;;;;21.50;81.80;;;;;;5060293;28;19927;-71
2022/07/01 14:21:44;;;;;;;;;;;21.60;83.20;;;;;;5060831;28;19916;-72
2022/07/01 14:24:10;;;;;;;;;;;21.70;81.60;;;;;;5093105;28;19943;-72
2022/07/01 14:26:38;;;;;;;;;;;21.80;83.60;;;;;;5059007;28;19921;-73
2022/07/01 14:29:04;;;;;;;;;;;22.30;84.60;;;;;;5059821;28;19923;-69
2022/07/01 14:31:31;;;;;;;;;;;22.50;81.40;;;;;;5092082;28;19917;-71
2022/07/01 14:33:58;;;;;;;;;;;22.50;80.30;;;;;;5059698;28;20371;-70
2022/07/01 14:36:25;;;;;;;;;;;22.50;79.70;;;;;;5060159;28;20256;-62
2022/07/01 14:38:52;;;;;;;;;;;22.40;77.40;;;;;;5092228;28;19924;-65